createdAt,value
2022-10-11T00:01:08.222Z,11.60
2022-10-11T00:03:38.478Z,8.20
2022-10-11T00:06:08.719Z,16.20
2022-10-11T00:08:37.212Z,17.60
2022-10-11T00:11:07.303Z,15.90
2022-10-11T00:13:35.703Z,14.70
2022-10-11T00:16:09.561Z,15.50
2022-10-11T00:18:46.735Z,20.30
2022-10-11T00:21:16.032Z,14.70
2022-10-11T00:23:44.471Z,19.40
2022-10-11T00:26:12.903Z,14.40
2022-10-11T00:28:41.999Z,10.20
2022-10-11T00:31:12.837Z,13.80
2022-10-11T00:33:41.520Z,11.00
2022-10-11T00:36:13.857Z,12.90
2022-10-11T00:38:42.682Z,14.30
2022-10-11T00:41:11.976Z,18.90
2022-10-11T00:43:40.533Z,9.70
2022-10-11T00:46:31.817Z,12.00
2022-10-11T00:49:07.138Z,15.30
2022-10-11T00:51:43.281Z,11.70
2022-10-11T00:54:16.276Z,12.30
2022-10-11T00:56:49.673Z,9.30
2022-10-11T00:59:22.253Z,13.30
2022-10-11T01:01:54.165Z,15.60
2022-10-11T01:04:24.396Z,13.70
2022-10-11T01:06:54.657Z,14.30
2022-10-11T01:09:24.245Z,11.20
2022-10-11T01:11:56.177Z,13.30
2022-10-11T01:14:40.819Z,13.20
2022-10-11T01:17:18.243Z,12.60
2022-10-11T01:20:18.317Z,13.40
2022-10-11T01:23:24.573Z,12.60
2022-10-11T01:26:10.362Z,13.40
2022-10-11T01:28:49.073Z,14.30
2022-10-11T01:31:25.030Z,14.20
2022-10-11T01:33:59.560Z,13.90
2022-10-11T01:36:34.212Z,12.40
2022-10-11T01:39:09.603Z,12.30
2022-10-11T01:41:42.106Z,12.50
2022-10-11T01:44:13.720Z,18.40
2022-10-11T01:46:42.859Z,16.30
2022-10-11T01:49:11.218Z,13.70
2022-10-11T01:51:47.159Z,11.10
2022-10-11T01:55:08.144Z,14.30
2022-10-11T01:58:01.572Z,12.90
2022-10-11T02:00:39.405Z,19.40
2022-10-11T02:03:19.075Z,12.30
2022-10-11T02:05:51.750Z,13.70
2022-10-11T02:08:33.697Z,14.10
2022-10-11T02:11:07.538Z,16.80
2022-10-11T02:13:41.239Z,12.20
2022-10-11T02:16:13.685Z,20.90
2022-10-11T02:18:45.701Z,12.80
2022-10-11T02:21:18.918Z,19.90
2022-10-11T02:23:53.161Z,16.90
2022-10-11T02:26:24.529Z,15.60
2022-10-11T02:29:00.561Z,14.70
2022-10-11T02:31:32.968Z,14.00
2022-10-11T02:34:09.841Z,12.70
2022-10-11T02:36:47.408Z,16.50
2022-10-11T02:39:21.749Z,12.00
2022-10-11T02:41:56.088Z,15.60
2022-10-11T02:44:34.045Z,13.20
2022-10-11T02:47:03.812Z,18.60
2022-10-11T02:49:33.189Z,12.40
2022-10-11T02:52:04.005Z,15.50
2022-10-11T02:54:32.869Z,15.90
2022-10-11T02:57:01.073Z,15.60
2022-10-11T02:59:29.503Z,13.40
2022-10-11T03:01:58.239Z,17.50
2022-10-11T03:04:28.866Z,13.90
2022-10-11T03:06:57.491Z,12.50
2022-10-11T03:09:26.687Z,14.30
2022-10-11T03:11:54.907Z,11.80
2022-10-11T03:14:24.357Z,13.30
2022-10-11T03:16:55.790Z,12.80
2022-10-11T03:19:27.568Z,11.60
2022-10-11T03:21:55.719Z,13.70
2022-10-11T03:24:24.501Z,15.10
2022-10-11T03:26:53.406Z,13.70
2022-10-11T03:29:22.007Z,14.10
2022-10-11T03:31:51.080Z,14.70
2022-10-11T03:34:20.376Z,13.60
2022-10-11T03:36:48.621Z,16.90
2022-10-11T03:39:16.857Z,17.50
2022-10-11T03:41:45.032Z,18.30
2022-10-11T03:44:13.224Z,14.40
2022-10-11T03:46:41.561Z,12.70
2022-10-11T03:49:11.211Z,15.00
2022-10-11T03:51:39.972Z,16.50
2022-10-11T03:54:08.946Z,14.50
2022-10-11T03:56:37.477Z,12.70
2022-10-11T03:59:06.238Z,11.90
2022-10-11T04:01:38.377Z,15.80
2022-10-11T04:04:07.113Z,18.90
2022-10-11T04:06:35.359Z,13.30
2022-10-11T04:09:04.453Z,12.10
2022-10-11T04:11:33.596Z,12.30
2022-10-11T04:14:02.847Z,19.70
2022-10-11T04:16:34.133Z,18.50
2022-10-11T04:19:03.460Z,12.00
2022-10-11T04:21:32.107Z,15.90
2022-10-11T04:24:01.160Z,15.70
2022-10-11T04:26:30.895Z,15.30
2022-10-11T04:28:59.655Z,12.30
2022-10-11T04:31:31.748Z,18.40
2022-10-11T04:34:00.978Z,14.90
2022-10-11T04:36:32.389Z,12.50
2022-10-11T04:39:02.420Z,11.20
2022-10-11T04:41:32.882Z,14.90
2022-10-11T04:44:01.837Z,12.80
2022-10-11T04:46:33.272Z,13.40
2022-10-11T04:49:03.044Z,14.80
2022-10-11T04:51:33.395Z,13.50
2022-10-11T04:54:02.211Z,13.90
2022-10-11T04:56:33.058Z,10.30
2022-10-11T04:59:01.406Z,12.10
2022-10-11T05:01:30.462Z,15.40
2022-10-11T05:03:59.152Z,19.80
2022-10-11T05:06:28.646Z,14.00
2022-10-11T05:08:57.383Z,15.40
2022-10-11T05:11:27.022Z,13.30
2022-10-11T05:13:57.644Z,14.30
2022-10-11T05:16:27.312Z,15.70
2022-10-11T05:18:55.629Z,13.70
2022-10-11T05:21:26.683Z,15.30
2022-10-11T05:23:56.262Z,14.80
2022-10-11T05:26:27.117Z,11.30
2022-10-11T05:28:55.836Z,15.30
2022-10-11T05:31:26.546Z,15.30
2022-10-11T05:33:54.959Z,15.40
2022-10-11T05:36:23.306Z,20.90
2022-10-11T05:38:52.284Z,16.30
2022-10-11T05:41:20.699Z,21.00
2022-10-11T05:43:49.380Z,19.90
2022-10-11T05:46:18.242Z,19.70
2022-10-11T05:48:48.073Z,23.40
2022-10-11T05:51:16.657Z,23.30
2022-10-11T05:53:45.341Z,23.80
2022-10-11T05:56:20.071Z,23.70
2022-10-11T05:58:49.050Z,22.20
2022-10-11T06:01:19.742Z,21.10
2022-10-11T06:03:48.259Z,22.40
2022-10-11T06:06:17.474Z,20.60
2022-10-11T06:08:47.019Z,18.20
2022-10-11T06:11:17.814Z,20.80
2022-10-11T06:13:46.212Z,20.10
2022-10-11T06:16:15.568Z,23.40
2022-10-11T06:18:43.894Z,20.70
2022-10-11T06:21:13.015Z,20.80
2022-10-11T06:23:41.626Z,20.20
2022-10-11T06:26:10.964Z,20.70
2022-10-11T06:28:39.374Z,18.20
2022-10-11T06:31:07.722Z,23.70
2022-10-11T06:33:36.419Z,18.50
2022-10-11T06:36:08.562Z,22.80
2022-10-11T06:38:41.039Z,20.80
2022-10-11T06:41:16.604Z,24.20
2022-10-11T06:43:45.266Z,20.80
2022-10-11T06:46:13.657Z,18.90
2022-10-11T06:48:43.770Z,16.60
2022-10-11T06:51:13.374Z,18.60
2022-10-11T06:53:41.785Z,16.40
2022-10-11T06:56:12.574Z,23.40
2022-10-11T06:58:41.298Z,20.10
2022-10-11T07:01:12.780Z,17.50
2022-10-11T07:03:41.634Z,18.40
2022-10-11T07:06:13.090Z,19.00
2022-10-11T07:08:42.321Z,18.20
2022-10-11T07:11:12.633Z,20.20
2022-10-11T07:13:41.747Z,18.60
2022-10-11T07:16:12.513Z,16.20
2022-10-11T07:18:41.057Z,16.60
2022-10-11T07:21:12.439Z,14.40
2022-10-11T07:23:41.364Z,18.60
2022-10-11T07:26:10.862Z,15.70
2022-10-11T07:28:39.816Z,19.30
2022-10-11T07:31:10.387Z,18.60
2022-10-11T07:33:38.758Z,20.60
2022-10-11T07:36:09.852Z,23.70
2022-10-11T07:38:40.848Z,18.60
2022-10-11T07:41:09.566Z,20.90
2022-10-11T07:43:38.743Z,19.00
2022-10-11T07:46:07.811Z,19.20
2022-10-11T07:48:37.663Z,18.60
2022-10-11T07:51:09.497Z,18.20
2022-10-11T07:53:42.304Z,11.70
2022-10-11T07:56:13.489Z,18.90
2022-10-11T07:58:42.438Z,17.80
2022-10-11T08:01:13.846Z,18.60
2022-10-11T08:03:42.160Z,14.40
2022-10-11T08:06:15.508Z,16.00
2022-10-11T08:08:44.444Z,17.30
2022-10-11T08:11:21.690Z,13.00
2022-10-11T08:13:51.219Z,18.60
2022-10-11T08:16:20.868Z,19.50
2022-10-11T08:18:49.332Z,14.60
2022-10-11T08:21:18.621Z,20.50
2022-10-11T08:23:47.044Z,15.40
2022-10-11T08:26:15.533Z,13.30
2022-10-11T08:28:43.907Z,13.80
2022-10-11T08:31:14.761Z,17.20
2022-10-11T08:33:43.595Z,15.30
2022-10-11T08:36:12.902Z,16.70
2022-10-11T08:38:41.784Z,16.00
2022-10-11T08:41:27.511Z,17.90
2022-10-11T08:44:06.287Z,13.40
2022-10-11T08:46:38.481Z,14.90
2022-10-11T08:49:09.208Z,13.20
2022-10-11T08:51:42.954Z,9.40
2022-10-11T08:54:17.776Z,13.00
2022-10-11T08:56:46.928Z,13.40
2022-10-11T08:59:27.221Z,15.60
2022-10-11T09:02:03.090Z,13.80
2022-10-11T09:04:31.835Z,13.00
2022-10-11T09:07:07.107Z,12.50
2022-10-11T09:09:55.679Z,13.30
2022-10-11T09:12:40.793Z,10.20
2022-10-11T09:15:20.363Z,11.30
2022-10-11T09:18:04.177Z,12.60
2022-10-11T09:20:43.841Z,15.10
2022-10-11T09:23:23.177Z,12.90
2022-10-11T09:25:58.917Z,11.90
2022-10-11T09:28:46.796Z,10.60
2022-10-11T09:31:16.451Z,10.80
2022-10-11T09:33:48.133Z,9.00
2022-10-11T09:36:23.878Z,9.20
2022-10-11T09:39:04.237Z,10.60
2022-10-11T09:41:41.527Z,11.20
2022-10-11T09:44:19.146Z,10.90
2022-10-11T09:46:49.248Z,9.30
2022-10-11T09:49:21.412Z,7.20
2022-10-11T09:51:54.180Z,7.30
2022-10-11T09:54:38.070Z,9.20
2022-10-11T09:57:17.183Z,5.90
2022-10-11T09:59:59.241Z,7.80
2022-10-11T10:02:29.179Z,5.70
2022-10-11T10:05:16.730Z,9.20
2022-10-11T10:08:04.525Z,8.90
2022-10-11T10:10:38.551Z,10.10
2022-10-11T10:13:20.563Z,10.20
2022-10-11T10:15:51.504Z,8.80
2022-10-11T10:18:23.856Z,8.20
2022-10-11T10:20:54.522Z,8.50
2022-10-11T10:23:26.245Z,9.60
2022-10-11T10:26:12.152Z,6.30
2022-10-11T10:28:56.457Z,6.10
2022-10-11T10:31:32.834Z,9.40
2022-10-11T10:34:16.395Z,7.00
2022-10-11T10:36:51.903Z,6.80
2022-10-11T10:39:29.628Z,6.80
2022-10-11T10:42:01.050Z,4.60
2022-10-11T10:44:30.365Z,5.60
2022-10-11T10:47:09.242Z,5.40
2022-10-11T10:49:59.581Z,6.10
2022-10-11T10:52:46.124Z,7.70
2022-10-11T10:55:23.249Z,6.80
2022-10-11T10:58:09.268Z,6.40
2022-10-11T11:00:46.063Z,5.50
2022-10-11T11:03:23.415Z,5.10
2022-10-11T11:06:01.610Z,6.00
2022-10-11T11:08:47.172Z,4.20
2022-10-11T11:11:31.574Z,4.30
2022-10-11T11:14:14.531Z,4.60
2022-10-11T11:16:49.811Z,6.50
2022-10-11T11:19:37.301Z,4.80
2022-10-11T11:22:11.015Z,3.30
2022-10-11T11:24:52.280Z,4.50
2022-10-11T11:27:37.864Z,5.10
2022-10-11T11:30:11.093Z,4.70
2022-10-11T11:32:48.349Z,5.20
2022-10-11T11:35:24.260Z,3.90
2022-10-11T11:38:02.525Z,4.10
2022-10-11T11:40:37.855Z,8.10
2022-10-11T11:43:15.268Z,6.20
2022-10-11T11:45:49.689Z,3.60
2022-10-11T11:48:20.194Z,4.60
2022-10-11T11:50:55.477Z,3.50
2022-10-11T11:53:34.774Z,8.70
2022-10-11T11:56:08.709Z,4.10
2022-10-11T11:58:45.584Z,7.00
2022-10-11T12:01:28.860Z,5.70
2022-10-11T12:04:10.890Z,8.00
2022-10-11T12:06:52.384Z,5.90
2022-10-11T12:09:26.889Z,4.90
2022-10-11T12:11:58.440Z,4.30
2022-10-11T12:14:35.161Z,3.10
2022-10-11T12:17:16.716Z,5.10
2022-10-11T12:20:04.489Z,7.30
2022-10-11T12:23:00.139Z,5.40
2022-10-11T12:25:43.815Z,3.30
2022-10-11T12:28:48.675Z,8.10
2022-10-11T12:31:22.758Z,4.00
2022-10-11T12:34:02.604Z,4.10
2022-10-11T12:36:38.056Z,3.70
2022-10-11T12:39:50.668Z,6.80
2022-10-11T12:42:27.243Z,3.20
2022-10-11T12:45:33.216Z,4.90
2022-10-11T12:48:25.594Z,4.30
2022-10-11T12:51:14.543Z,4.50
2022-10-11T12:54:25.585Z,3.60
2022-10-11T12:57:09.661Z,5.30
2022-10-11T12:59:44.313Z,6.30
2022-10-11T13:02:28.744Z,4.60
2022-10-11T13:05:08.696Z,3.80
2022-10-11T13:07:40.777Z,3.00
2022-10-11T13:10:14.585Z,3.50
2022-10-11T13:12:46.236Z,4.70
2022-10-11T13:15:18.817Z,9.80
2022-10-11T13:17:50.149Z,3.10
2022-10-11T13:20:24.124Z,3.30
2022-10-11T13:22:55.169Z,4.90
2022-10-11T13:25:26.040Z,6.70
2022-10-11T13:27:57.671Z,6.50
2022-10-11T13:30:30.305Z,6.60
2022-10-11T13:33:00.767Z,2.60
2022-10-11T13:35:34.305Z,2.60
2022-10-11T13:38:08.242Z,3.50
2022-10-11T13:40:38.635Z,7.00
2022-10-11T13:43:07.811Z,5.20
2022-10-11T13:45:38.674Z,4.10
2022-10-11T13:48:14.935Z,4.60
2022-10-11T13:50:50.560Z,4.60
2022-10-11T13:53:24.571Z,4.90
2022-10-11T13:55:56.689Z,6.30
2022-10-11T13:58:30.745Z,6.40
2022-10-11T14:01:01.556Z,8.90
2022-10-11T14:03:40.284Z,5.50
2022-10-11T14:06:09.219Z,10.10
2022-10-11T14:08:43.077Z,7.70
2022-10-11T14:11:13.742Z,4.00
2022-10-11T14:13:45.608Z,5.30
2022-10-11T14:16:31.415Z,3.80
2022-10-11T14:19:10.871Z,5.30
2022-10-11T14:21:51.214Z,2.20
2022-10-11T14:24:20.787Z,5.80
2022-10-11T14:26:51.179Z,2.70
2022-10-11T14:29:23.696Z,8.00
2022-10-11T14:31:55.470Z,3.80
2022-10-11T14:34:25.678Z,7.30
2022-10-11T14:36:54.352Z,4.10
2022-10-11T14:39:24.169Z,8.40
2022-10-11T14:41:53.708Z,4.80
2022-10-11T14:44:23.850Z,4.70
2022-10-11T14:46:54.544Z,6.60
2022-10-11T14:49:25.512Z,4.30
2022-10-11T14:51:56.167Z,5.80
2022-10-11T14:54:26.944Z,3.40
2022-10-11T14:56:57.718Z,2.40
2022-10-11T14:59:31.861Z,8.40
2022-10-11T15:02:00.719Z,5.90
2022-10-11T15:04:30.817Z,6.30
2022-10-11T15:07:00.030Z,6.60
2022-10-11T15:09:31.879Z,5.30
2022-10-11T15:12:00.302Z,3.30
2022-10-11T15:14:28.678Z,5.80
2022-10-11T15:16:58.802Z,3.80
2022-10-11T15:19:27.121Z,8.80
2022-10-11T15:21:55.648Z,6.40
2022-10-11T15:24:24.069Z,9.20
2022-10-11T15:26:52.474Z,9.60
2022-10-11T15:29:23.529Z,4.90
2022-10-11T15:31:51.916Z,5.30
2022-10-11T15:34:20.806Z,8.00
2022-10-11T15:36:49.614Z,3.70
2022-10-11T15:39:26.097Z,5.50
2022-10-11T15:41:54.598Z,7.10
2022-10-11T15:44:23.503Z,7.80
2022-10-11T15:46:52.500Z,9.80
2022-10-11T15:49:20.914Z,3.10
2022-10-11T15:51:50.226Z,8.20
2022-10-11T15:54:18.552Z,8.00
2022-10-11T15:56:47.311Z,7.90
2022-10-11T15:59:16.041Z,7.20
2022-10-11T16:01:44.529Z,6.10
2022-10-11T16:04:13.106Z,9.60
2022-10-11T16:06:41.594Z,5.90
2022-10-11T16:09:10.516Z,6.90
2022-10-11T16:11:39.201Z,5.10
2022-10-11T16:14:07.572Z,7.30
2022-10-11T16:16:36.518Z,6.50
2022-10-11T16:19:04.947Z,7.70
2022-10-11T16:21:33.187Z,5.60
2022-10-11T16:24:01.562Z,9.30
2022-10-11T16:26:32.087Z,6.30
2022-10-11T16:29:00.599Z,17.40
2022-10-11T16:31:31.767Z,16.20
2022-10-11T16:34:00.222Z,12.80
2022-10-11T16:36:31.553Z,16.20
2022-10-11T16:39:02.694Z,11.10
2022-10-11T16:41:33.566Z,12.50
2022-10-11T16:44:02.632Z,9.80
2022-10-11T16:46:33.093Z,11.00
2022-10-11T16:49:01.486Z,9.40
2022-10-11T16:51:31.030Z,12.00
2022-10-11T16:54:00.650Z,11.80
2022-10-11T16:56:30.859Z,12.70
2022-10-11T16:58:59.197Z,12.70
2022-10-11T17:01:27.527Z,11.50
2022-10-11T17:03:57.579Z,12.10
2022-10-11T17:06:26.449Z,5.40
2022-10-11T17:08:55.272Z,7.90
2022-10-11T17:11:24.424Z,13.00
2022-10-11T17:13:53.639Z,8.90
2022-10-11T17:16:22.898Z,11.70
2022-10-11T17:18:51.314Z,17.90
2022-10-11T17:21:21.366Z,32.20
2022-10-11T17:23:50.196Z,49.20
2022-10-11T17:26:24.242Z,66.70
2022-10-11T17:28:53.292Z,53.80
2022-10-11T17:31:22.014Z,42.40
2022-10-11T17:33:50.678Z,34.40
2022-10-11T17:36:22.836Z,36.30
2022-10-11T17:38:52.070Z,27.30
2022-10-11T17:41:21.209Z,33.00
2022-10-11T17:43:50.364Z,21.90
2022-10-11T17:46:22.071Z,18.60
2022-10-11T17:48:54.368Z,18.70
2022-10-11T17:51:23.284Z,22.20
2022-10-11T17:53:52.285Z,10.60
2022-10-11T17:56:28.182Z,15.50
2022-10-11T17:58:59.726Z,11.80
2022-10-11T18:01:32.728Z,18.20
2022-10-11T18:04:04.448Z,15.10
2022-10-11T18:06:38.987Z,15.80
2022-10-11T18:09:07.922Z,16.90
2022-10-11T18:11:36.655Z,13.60
2022-10-11T18:14:04.903Z,16.90
2022-10-11T18:16:34.614Z,13.00
2022-10-11T18:19:05.949Z,14.40
2022-10-11T18:21:37.268Z,14.90
2022-10-11T18:24:10.194Z,16.50
2022-10-11T18:26:39.193Z,21.00
2022-10-11T18:29:07.475Z,17.00
2022-10-11T18:31:36.379Z,24.40
2022-10-11T18:34:07.786Z,19.60
2022-10-11T18:36:36.419Z,25.00
2022-10-11T18:39:07.498Z,18.80
2022-10-11T18:41:37.820Z,19.10
2022-10-11T18:44:08.666Z,22.30
2022-10-11T18:46:40.070Z,18.40
2022-10-11T18:49:08.851Z,18.60
2022-10-11T18:51:39.081Z,24.60
2022-10-11T18:54:10.090Z,23.30
2022-10-11T18:56:38.429Z,28.70
2022-10-11T18:59:07.495Z,26.30
2022-10-11T19:01:38.750Z,22.00
2022-10-11T19:04:10.081Z,29.60
2022-10-11T19:06:40.655Z,32.30
2022-10-11T19:09:10.943Z,28.20
2022-10-11T19:11:39.932Z,28.60
2022-10-11T19:14:10.870Z,29.70
2022-10-11T19:16:42.330Z,27.30
2022-10-11T19:19:12.036Z,24.80
2022-10-11T19:21:41.684Z,25.50
2022-10-11T19:24:10.145Z,37.20
2022-10-11T19:26:40.655Z,28.60
2022-10-11T19:29:11.323Z,23.40
2022-10-11T19:31:43.980Z,31.50
2022-10-11T19:34:12.967Z,29.00
2022-10-11T19:36:42.258Z,26.60
2022-10-11T19:39:12.943Z,36.60
2022-10-11T19:41:42.421Z,27.90
2022-10-11T19:44:11.323Z,32.80
2022-10-11T19:46:55.399Z,31.60
2022-10-11T19:49:25.443Z,29.10
2022-10-11T19:51:55.643Z,28.40
2022-10-11T19:54:24.747Z,30.80
2022-10-11T19:56:53.015Z,28.20
2022-10-11T19:59:21.533Z,31.40
2022-10-11T20:01:53.107Z,32.60
2022-10-11T20:09:38.903Z,35.10
2022-10-11T20:12:08.308Z,29.90
2022-10-11T20:14:37.055Z,34.40
2022-10-11T20:17:05.918Z,39.20
2022-10-11T20:19:34.424Z,34.40
2022-10-11T20:22:02.962Z,33.10
2022-10-11T20:24:34.076Z,31.70
2022-10-11T20:27:04.061Z,40.80
2022-10-11T20:29:32.694Z,40.00
2022-10-11T20:32:00.899Z,38.80
2022-10-11T20:34:30.718Z,39.00
2022-10-11T20:36:59.616Z,29.50
2022-10-11T20:39:28.067Z,37.90
2022-10-11T20:41:56.656Z,33.20
2022-10-11T20:44:25.668Z,36.10
2022-10-11T20:46:54.143Z,38.90
2022-10-11T20:49:22.520Z,36.90
2022-10-11T20:51:50.750Z,35.10
2022-10-11T20:54:19.168Z,32.50
2022-10-11T20:56:47.633Z,37.80
2022-10-11T20:59:15.816Z,34.30
2022-10-11T21:01:46.773Z,25.60
2022-10-11T21:04:19.256Z,35.10
2022-10-11T21:06:48.533Z,32.80
2022-10-11T21:09:18.569Z,30.00
2022-10-11T21:11:47.226Z,36.20
2022-10-11T21:14:15.748Z,31.00
2022-10-11T21:16:44.024Z,37.50
2022-10-11T21:19:15.080Z,35.70
2022-10-11T21:21:44.071Z,35.30
2022-10-11T21:24:12.417Z,33.10
2022-10-11T21:26:40.584Z,30.50
2022-10-11T21:29:08.862Z,34.70
2022-10-11T21:31:37.634Z,32.70
2022-10-11T21:34:06.822Z,35.50
2022-10-11T21:36:35.221Z,33.60
2022-10-11T21:39:03.655Z,31.70
2022-10-11T21:41:33.626Z,31.40
2022-10-11T21:44:01.960Z,26.60
2022-10-11T21:47:01.136Z,35.20
2022-10-11T21:49:22.167Z,36.20
2022-10-11T21:51:51.158Z,32.80
2022-10-11T21:54:19.791Z,30.20
2022-10-11T21:56:48.230Z,30.50
2022-10-11T21:59:16.880Z,34.90
2022-10-11T22:01:45.169Z,28.50
2022-10-11T22:04:13.666Z,32.80
2022-10-11T22:06:44.078Z,26.30
2022-10-11T22:09:12.526Z,27.40
2022-10-11T22:11:41.080Z,28.80
2022-10-11T22:14:09.476Z,30.00
2022-10-11T22:16:37.974Z,32.60
2022-10-11T22:19:06.544Z,29.90
2022-10-11T22:21:34.957Z,33.00
2022-10-11T22:24:03.912Z,27.40
2022-10-11T22:26:35.790Z,29.80
2022-10-11T22:29:04.304Z,32.00
2022-10-11T22:31:34.314Z,29.00
2022-10-11T22:34:02.975Z,31.50
2022-10-11T22:36:33.060Z,30.80
2022-10-11T22:39:07.127Z,26.60
2022-10-11T22:41:36.471Z,29.10
2022-10-11T22:44:05.983Z,25.30
2022-10-11T22:46:34.703Z,24.90
2022-10-11T22:49:03.693Z,28.00
2022-10-11T22:51:32.813Z,27.30
2022-10-11T22:54:01.448Z,29.90
2022-10-11T22:56:32.806Z,25.80
2022-10-11T22:59:01.412Z,21.10
2022-10-11T23:01:30.024Z,25.80
2022-10-11T23:03:59.463Z,32.50
2022-10-11T23:06:27.952Z,25.60
2022-10-11T23:08:56.713Z,22.20
2022-10-11T23:11:25.371Z,24.00
2022-10-11T23:13:54.362Z,26.00
2022-10-11T23:16:22.769Z,28.50
2022-10-11T23:18:53.566Z,29.30
2022-10-11T23:21:22.458Z,20.80
2022-10-11T23:23:54.899Z,26.30
2022-10-11T23:26:23.816Z,28.40
2022-10-11T23:28:55.270Z,32.10
2022-10-11T23:31:23.727Z,23.40
2022-10-11T23:33:53.725Z,24.50
2022-10-11T23:36:24.950Z,21.40
2022-10-11T23:38:55.232Z,23.70
2022-10-11T23:41:26.808Z,23.50
2022-10-11T23:43:56.594Z,24.70
2022-10-11T23:46:25.444Z,25.10
2022-10-11T23:48:54.008Z,19.10
2022-10-11T23:51:23.094Z,23.20
2022-10-11T23:53:51.858Z,29.40
2022-10-11T23:56:20.681Z,26.70
2022-10-11T23:58:54.855Z,20.60
